Time;durP1;ratioP1;P1;durP2;ratioP2;P2;SDS_P1;SDS_P2;PMS_P1;PMS_P2;Temp;Humidity;BMP_temperature;BMP_pressure;BME280_temperature;BME280_humidity;BME280_pressure;Samples;Min_cycle;Max_cycle;Signal;HPM_P1;HPM_P2
2021/08/16 00:00:49;;;;;;;1999.90;999.90;;;20.20;99.90;;;;;;5075465;28;20443;-87
2021/08/16 00:03:16;;;;;;;1999.90;999.90;;;20.20;99.90;;;;;;5074832;28;20450;-87
2021/08/16 00:05:43;;;;;;;1999.90;999.90;;;20.20;99.90;;;;;;5066590;28;20447;-88
2021/08/16 00:08:11;;;;;;;1999.90;999.90;;;20.20;99.90;;;;;;5053896;28;20830;-87
2021/08/16 00:10:39;;;;;;;1999.90;999.90;;;20.00;99.90;;;;;;5053594;28;20480;-86
2021/08/16 00:13:06;;;;;;;1999.90;999.90;;;19.90;99.90;;;;;;5053520;28;20839;-86
2021/08/16 00:15:33;;;;;;;1999.90;999.90;;;19.90;99.90;;;;;;5053615;28;20449;-87
2021/08/16 00:18:01;;;;;;;1999.90;999.90;;;20.00;99.90;;;;;;5053473;28;20471;-86
2021/08/16 00:20:29;;;;;;;1999.90;999.90;;;19.90;99.90;;;;;;5053827;28;20444;-86
2021/08/16 00:22:56;;;;;;;1999.90;999.90;;;20.00;99.90;;;;;;5053718;28;20599;-87
2021/08/16 00:25:25;;;;;;;1999.90;999.90;;;20.00;99.90;;;;;;5057376;28;20450;-86
2021/08/16 00:27:51;;;;;;;1999.90;999.90;;;20.00;99.90;;;;;;5072688;28;20467;-86
2021/08/16 00:30:18;;;;;;;1999.90;999.90;;;19.90;99.90;;;;;;5073037;28;20491;-86
2021/08/16 00:32:45;;;;;;;1999.90;999.90;;;19.90;99.90;;;;;;5073403;28;20476;-86
2021/08/16 00:35:12;;;;;;;1999.90;999.90;;;19.80;99.90;;;;;;5070368;28;20464;-86
2021/08/16 00:37:39;;;;;;;1999.90;999.90;;;19.60;99.90;;;;;;5032724;28;20505;-85
2021/08/16 00:40:07;;;;;;;1999.90;999.90;;;19.60;99.90;;;;;;5033258;28;20867;-86
2021/08/16 00:42:36;;;;;;;1999.90;999.90;;;19.50;99.90;;;;;;5033163;28;20453;-85
2021/08/16 00:45:04;;;;;;;1999.90;999.90;;;19.40;99.90;;;;;;5035225;28;20527;-86
2021/08/16 00:47:31;;;;;;;1999.90;999.90;;;19.40;99.90;;;;;;5071566;28;21096;-85
2021/08/16 00:49:58;;;;;;;1999.90;999.90;;;19.40;99.90;;;;;;5072517;28;20487;-87
2021/08/16 00:52:26;;;;;;;1999.90;999.90;;;19.40;99.90;;;;;;5073103;28;20462;-85
2021/08/16 00:54:53;;;;;;;1999.90;999.90;;;19.30;99.90;;;;;;5072755;28;21017;-86
2021/08/16 00:57:21;;;;;;;1999.90;999.90;;;19.30;99.90;;;;;;5070774;28;20528;-86
2021/08/16 00:59:50;;;;;;;1999.90;999.90;;;19.30;99.90;;;;;;5072408;28;20968;-86
2021/08/16 01:02:17;;;;;;;1999.90;999.90;;;19.30;99.90;;;;;;5072406;28;20544;-86
2021/08/16 01:04:43;;;;;;;1999.90;999.90;;;19.20;99.90;;;;;;5072656;28;20457;-86
2021/08/16 01:07:10;;;;;;;1999.90;999.90;;;19.30;99.90;;;;;;5071165;28;20552;-85
2021/08/16 01:09:37;;;;;;;1999.90;999.90;;;19.30;99.90;;;;;;5059918;28;20864;-86
2021/08/16 01:12:05;;;;;;;1999.90;999.90;;;19.30;99.90;;;;;;5053097;28;20451;-85
2021/08/16 01:14:32;;;;;;;1999.90;999.90;;;19.20;99.90;;;;;;5065916;28;20443;-86
2021/08/16 01:17:01;;;;;;;1999.90;999.90;;;19.20;99.90;;;;;;5080299;28;20466;-87
2021/08/16 01:19:28;;;;;;;1999.90;999.90;;;19.10;99.90;;;;;;5070609;28;20481;-86
2021/08/16 01:21:55;;;;;;;1999.90;999.90;;;19.10;99.90;;;;;;5032139;28;20449;-87
2021/08/16 01:24:22;;;;;;;1999.90;999.90;;;19.10;99.90;;;;;;5032333;28;20466;-87
2021/08/16 01:26:50;;;;;;;1999.90;999.90;;;19.00;99.90;;;;;;5058780;28;20992;-87
2021/08/16 01:29:18;;;;;;;1999.90;999.90;;;19.00;99.90;;;;;;5072313;28;20486;-86
2021/08/16 01:31:46;;;;;;;1999.90;999.90;;;18.90;99.90;;;;;;5072284;28;20962;-88
2021/08/16 01:34:13;;;;;;;1999.90;999.90;;;18.80;99.90;;;;;;5072448;28;20937;-88
2021/08/16 01:36:41;;;;;;;1999.90;999.90;;;18.70;99.90;;;;;;5059793;28;20835;-88
2021/08/16 01:39:08;;;;;;;1999.90;999.90;;;18.70;99.90;;;;;;5051933;28;21018;-88
2021/08/16 01:41:35;;;;;;;1999.90;999.90;;;18.80;99.90;;;;;;5051985;28;20434;-87
2021/08/16 01:44:03;;;;;;;1999.90;999.90;;;18.80;99.90;;;;;;5052344;28;20460;-86
2021/08/16 01:46:30;;;;;;;1999.90;999.90;;;18.60;99.90;;;;;;5061742;28;20828;-87
2021/08/16 01:48:57;;;;;;;1999.90;999.90;;;18.50;99.90;;;;;;5071885;28;20568;-88
2021/08/16 01:51:24;;;;;;;1999.90;999.90;;;18.40;99.90;;;;;;5071970;28;20453;-86
2021/08/16 01:53:51;;;;;;;1999.90;999.90;;;18.30;99.90;;;;;;5071773;28;20988;-87
2021/08/16 01:56:20;;;;;;;1999.90;999.90;;;18.30;99.90;;;;;;5062757;28;20460;-85
2021/08/16 01:58:47;;;;;;;1999.90;999.90;;;18.20;99.90;;;;;;5051918;28;20530;-89
2021/08/16 02:01:15;;;;;;;1999.90;999.90;;;18.20;99.90;;;;;;5051749;28;20446;-87
2021/08/16 02:03:42;;;;;;;1999.90;999.90;;;18.20;99.90;;;;;;5051589;28;20439;-87
2021/08/16 02:06:09;;;;;;;1999.90;999.90;;;18.20;99.90;;;;;;5056612;28;20451;-87
2021/08/16 02:08:36;;;;;;;1999.90;999.90;;;18.20;99.90;;;;;;5061762;28;20558;-87
2021/08/16 02:11:03;;;;;;;1999.90;999.90;;;18.20;99.90;;;;;;5055430;28;20524;-87
2021/08/16 02:13:30;;;;;;;1999.90;999.90;;;18.20;99.90;;;;;;5056042;28;20960;-87
2021/08/16 02:15:57;;;;;;;1999.90;999.90;;;18.20;99.90;;;;;;5059784;28;20455;-87
2021/08/16 02:18:25;;;;;;;1999.90;999.90;;;18.10;99.90;;;;;;5075535;28;20626;-88
2021/08/16 02:20:52;;;;;;;1999.90;999.90;;;18.10;99.90;;;;;;5076407;28;20519;-87
2021/08/16 02:23:18;;;;;;;1999.90;999.90;;;18.10;99.90;;;;;;5076006;28;20949;-88
2021/08/16 02:25:45;;;;;;;1999.90;999.90;;;18.10;99.90;;;;;;5078843;28;20481;-87
2021/08/16 02:28:15;;;;;;;1999.90;999.90;;;18.20;99.90;;;;;;5076309;28;20468;-88
2021/08/16 02:30:42;;;;;;;1999.90;999.90;;;18.20;99.90;;;;;;5075113;28;21067;-87
2021/08/16 02:33:09;;;;;;;1999.90;999.90;;;18.10;99.90;;;;;;5075245;28;20461;-88
2021/08/16 02:35:37;;;;;;;1999.90;999.90;;;18.00;99.90;;;;;;5073922;28;20447;-88
2021/08/16 02:38:04;;;;;;;1999.90;999.90;;;18.10;99.90;;;;;;5054579;28;20867;-86
2021/08/16 02:40:31;;;;;;;1999.90;999.90;;;18.10;99.90;;;;;;5055286;28;20457;-87
2021/08/16 02:42:58;;;;;;;1999.90;999.90;;;18.10;99.90;;;;;;5055020;28;20453;-87
2021/08/16 02:45:25;;;;;;;1999.90;999.90;;;18.00;99.90;;;;;;5055162;28;20456;-87
2021/08/16 02:47:53;;;;;;;1999.90;999.90;;;18.10;99.90;;;;;;5055244;28;20858;-85
2021/08/16 02:50:20;;;;;;;1999.90;999.90;;;18.00;99.90;;;;;;5054822;28;20488;-87
2021/08/16 02:52:48;;;;;;;1999.90;999.90;;;18.10;99.90;;;;;;5055125;28;20849;-87
2021/08/16 02:55:15;;;;;;;1999.90;999.90;;;18.00;99.90;;;;;;5054998;28;20455;-85
2021/08/16 02:57:42;;;;;;;1999.90;999.90;;;18.00;99.90;;;;;;5071901;28;20476;-86
2021/08/16 03:00:10;;;;;;;1999.90;999.90;;;18.00;99.90;;;;;;5082276;28;20439;-87
2021/08/16 03:02:36;;;;;;;1999.90;999.90;;;18.00;99.90;;;;;;5090135;28;20453;-87
2021/08/16 03:05:04;;;;;;;1999.90;999.90;;;18.00;99.90;;;;;;5091488;28;20562;-86
2021/08/16 03:07:31;;;;;;;1999.90;999.90;;;18.10;99.90;;;;;;5092516;28;20484;-86
2021/08/16 03:09:59;;;;;;;1999.90;999.90;;;18.10;99.90;;;;;;5092406;28;20512;-86
2021/08/16 03:12:26;;;;;;;1999.90;999.90;;;18.10;99.90;;;;;;5075212;28;20481;-88
2021/08/16 03:14:53;;;;;;;1999.90;999.90;;;18.00;99.90;;;;;;5077279;28;20544;-88
2021/08/16 03:17:19;;;;;;;1999.90;999.90;;;18.00;99.90;;;;;;5075714;28;20730;-88
2021/08/16 03:19:46;;;;;;;1999.90;999.90;;;18.10;99.90;;;;;;5076513;28;21040;-88
2021/08/16 03:22:13;;;;;;;1999.90;999.90;;;18.10;99.90;;;;;;5075798;28;20497;-88
2021/08/16 03:24:40;;;;;;;1999.90;999.90;;;18.10;99.90;;;;;;5076065;28;20452;-88
2021/08/16 03:27:08;;;;;;;1999.90;999.90;;;17.90;99.90;;;;;;5062857;28;20458;-87
2021/08/16 03:29:35;;;;;;;1999.90;999.90;;;17.90;99.90;;;;;;5054725;28;20453;-88
2021/08/16 03:32:02;;;;;;;1999.90;999.90;;;18.10;99.90;;;;;;5054861;28;21035;-88
2021/08/16 03:34:29;;;;;;;1999.90;999.90;;;18.00;99.90;;;;;;5054488;28;20461;-87
2021/08/16 03:36:56;;;;;;;1999.90;999.90;;;18.00;99.90;;;;;;5065232;28;20830;-88
2021/08/16 03:39:23;;;;;;;1999.90;999.90;;;18.10;99.90;;;;;;5094012;22;20503;-83
2021/08/16 03:41:49;;;;;;;1999.90;999.90;;;18.10;99.90;;;;;;5080256;28;20457;-84
2021/08/16 03:44:18;;;;;;;1999.90;999.90;;;18.00;99.90;;;;;;5081019;28;20535;-83
2021/08/16 03:46:44;;;;;;;1999.90;999.90;;;18.00;99.90;;;;;;5089059;28;20445;-84
2021/08/16 03:49:12;;;;;;;1999.90;999.90;;;18.00;99.90;;;;;;5089050;28;20857;-84
2021/08/16 03:51:38;;;;;;;1999.90;999.90;;;17.90;99.90;;;;;;5080128;28;21009;-83
2021/08/16 03:54:05;;;;;;;1999.90;999.90;;;17.90;99.90;;;;;;5061423;28;20449;-85
2021/08/16 03:56:32;;;;;;;1999.90;999.90;;;17.80;99.90;;;;;;5059129;28;20450;-83
2021/08/16 03:58:59;;;;;;;1999.90;999.90;;;17.80;99.90;;;;;;5061056;28;21062;-82
2021/08/16 04:01:27;;;;;;;1999.90;999.90;;;17.70;99.90;;;;;;5059171;28;20447;-84
2021/08/16 04:03:54;;;;;;;1999.90;999.90;;;17.80;99.90;;;;;;5058939;28;20450;-85
2021/08/16 04:06:21;;;;;;;1999.90;999.90;;;17.80;99.90;;;;;;5060686;28;20461;-87
2021/08/16 04:08:48;;;;;;;1999.90;999.90;;;17.80;99.90;;;;;;5071614;28;20476;-86
2021/08/16 04:11:14;;;;;;;1999.90;999.90;;;17.70;99.90;;;;;;5058391;28;20486;-86
2021/08/16 04:13:41;;;;;;;1999.90;999.90;;;17.70;99.90;;;;;;5044228;28;20540;-84
2021/08/16 04:16:08;;;;;;;1999.90;999.90;;;17.70;99.90;;;;;;5038421;28;20450;-85
2021/08/16 04:18:37;;;;;;;1999.90;999.90;;;17.70;99.90;;;;;;5037969;28;20470;-86
2021/08/16 04:21:04;;;;;;;1999.90;999.90;;;17.70;99.90;;;;;;5037846;28;20453;-85
2021/08/16 04:23:31;;;;;;;1999.90;999.90;;;17.70;99.90;;;;;;5038060;28;20454;-85
2021/08/16 04:25:57;;;;;;;1999.90;999.90;;;17.70;99.90;;;;;;5051570;28;20520;-85
2021/08/16 04:28:24;;;;;;;1999.90;999.90;;;17.70;99.90;;;;;;5058059;28;20552;-84
2021/08/16 04:30:51;;;;;;;1999.90;999.90;;;17.70;99.90;;;;;;5058354;28;20543;-84
2021/08/16 04:33:20;;;;;;;1999.90;999.90;;;17.70;99.90;;;;;;5057179;28;20448;-84
2021/08/16 04:35:49;;;;;;;1999.90;999.90;;;17.70;99.90;;;;;;5058019;28;20459;-85
2021/08/16 04:38:19;;;;;;;1999.90;999.90;;;17.70;99.90;;;;;;5059948;28;20573;-85
2021/08/16 04:40:45;;;;;;;1999.90;999.90;;;17.70;99.90;;;;;;5059282;28;20436;-84
2021/08/16 04:43:12;;;;;;;1999.90;999.90;;;17.60;99.90;;;;;;5061265;28;20448;-84
2021/08/16 04:45:39;;;;;;;1999.90;999.90;;;17.60;99.90;;;;;;5058646;28;20478;-84
2021/08/16 04:48:06;;;;;;;1999.90;999.90;;;17.70;99.90;;;;;;5058414;28;20462;-85
2021/08/16 04:50:33;;;;;;;1999.90;999.90;;;17.60;99.90;;;;;;5062133;28;20481;-85
2021/08/16 04:53:02;;;;;;;1999.90;999.90;;;17.70;99.90;;;;;;5077886;28;20505;-88
2021/08/16 04:55:28;;;;;;;1999.90;999.90;;;17.70;99.90;;;;;;5077714;28;20498;-86
2021/08/16 04:57:55;;;;;;;1999.90;999.90;;;17.60;99.90;;;;;;5078022;28;20467;-87
2021/08/16 05:00:25;;;;;;;1999.90;999.90;;;17.70;99.90;;;;;;5065021;28;20450;-85
2021/08/16 05:02:52;;;;;;;1999.90;999.90;;;17.60;99.90;;;;;;5058481;28;20814;-82
2021/08/16 05:05:21;;;;;;;1999.90;999.90;;;18.20;99.90;;;;;;5058321;28;20447;-82
2021/08/16 05:07:49;;;;;;;1999.90;999.90;;;18.60;99.90;;;;;;5068257;28;20442;-83
2021/08/16 05:10:19;;;;;;;1999.90;999.90;;;18.90;99.90;;;;;;5073793;28;20478;-83
2021/08/16 05:12:46;;;;;;;1999.90;999.90;;;19.00;99.90;;;;;;5073710;28;20453;-82
2021/08/16 05:15:13;;;;;;;1999.90;999.90;;;19.20;99.90;;;;;;5073083;28;20519;-83
2021/08/16 05:17:40;;;;;;;1999.90;999.90;;;19.20;99.90;;;;;;5065889;28;20481;-83
2021/08/16 05:20:09;;;;;;;1999.90;999.90;;;19.30;99.90;;;;;;5062652;28;20560;-84
2021/08/16 05:22:38;;;;;;;1999.90;999.90;;;19.40;99.90;;;;;;5060099;28;20834;-83
2021/08/16 05:25:05;;;;;;;1999.90;999.90;;;19.50;99.90;;;;;;5059193;28;20847;-84
2021/08/16 05:27:34;;;;;;;1999.90;999.90;;;19.50;99.90;;;;;;5055916;28;20466;-84
2021/08/16 05:30:01;;;;;;;1999.90;999.90;;;19.30;99.90;;;;;;5052911;28;20557;-85
2021/08/16 05:32:27;;;;;;;1999.90;999.90;;;19.10;99.90;;;;;;5052193;28;20494;-84
2021/08/16 05:34:54;;;;;;;1999.90;999.90;;;18.80;99.90;;;;;;5052904;28;20460;-85
2021/08/16 05:37:21;;;;;;;1999.90;999.90;;;18.70;99.90;;;;;;5052785;28;20961;-84
2021/08/16 05:39:48;;;;;;;1999.90;999.90;;;18.50;99.90;;;;;;5052050;28;20495;-85
2021/08/16 05:42:15;;;;;;;1999.90;999.90;;;18.40;99.90;;;;;;5053275;28;20448;-85
2021/08/16 05:44:44;;;;;;;1999.90;999.90;;;18.30;99.90;;;;;;5062291;28;20456;-84
2021/08/16 05:47:11;;;;;;;1999.90;999.90;;;18.20;99.90;;;;;;5059395;28;20450;-86
2021/08/16 05:49:38;;;;;;;1999.90;999.90;;;18.20;99.90;;;;;;5063868;28;21204;-85
2021/08/16 05:52:06;;;;;;;1999.90;999.90;;;18.10;99.90;;;;;;5061843;28;20569;-84
2021/08/16 05:54:33;;;;;;;1999.90;999.90;;;18.00;99.90;;;;;;5063355;28;20446;-83
2021/08/16 05:57:00;;;;;;;1999.90;999.90;;;18.00;99.90;;;;;;5060979;28;20431;-83
2021/08/16 05:59:26;;;;;;;1999.90;999.90;;;18.10;99.90;;;;;;5063475;28;20915;-84
2021/08/16 06:01:55;;;;;;;1999.90;999.90;;;18.10;99.90;;;;;;5060772;28;20840;-84
2021/08/16 06:04:21;;;;;;;1999.90;999.90;;;18.00;99.90;;;;;;5062459;28;20432;-84
2021/08/16 06:06:48;;;;;;;1999.90;999.90;;;17.90;99.90;;;;;;5063184;28;20440;-85
2021/08/16 06:09:15;;;;;;;1999.90;999.90;;;18.00;99.90;;;;;;5063857;28;20555;-84
2021/08/16 06:11:42;;;;;;;1999.90;999.90;;;18.00;99.90;;;;;;5066823;28;20508;-83
2021/08/16 06:14:09;;;;;;;1999.90;999.90;;;17.90;99.90;;;;;;5062935;28;20526;-84
2021/08/16 06:16:37;;;;;;;1999.90;999.90;;;17.90;99.90;;;;;;5061939;28;20495;-84
2021/08/16 06:19:05;;;;;;;1999.90;999.90;;;17.90;99.90;;;;;;5063399;28;20602;-85
2021/08/16 06:21:33;;;;;;;1999.90;999.90;;;17.90;99.90;;;;;;5060641;28;20447;-85
2021/08/16 06:24:00;;;;;;;1999.90;999.90;;;18.00;99.90;;;;;;5063755;28;20457;-85
2021/08/16 06:26:27;;;;;;;1999.90;999.90;;;18.00;99.90;;;;;;5061858;28;20444;-84
2021/08/16 06:28:54;;;;;;;1999.90;999.90;;;18.00;99.90;;;;;;5060780;28;20849;-84
2021/08/16 06:31:21;;;;;;;1999.90;999.90;;;17.90;99.90;;;;;;5063148;28;20570;-84
2021/08/16 06:33:47;;;;;;;1999.90;999.90;;;18.00;99.90;;;;;;5066245;28;20523;-85
2021/08/16 06:36:17;;;;;;;1999.90;999.90;;;18.10;99.90;;;;;;5065797;28;20544;-84
2021/08/16 06:38:46;;;;;;;1999.90;999.90;;;18.20;99.90;;;;;;5066678;28;20485;-84
2021/08/16 06:41:15;;;;;;;1999.90;999.90;;;18.10;99.90;;;;;;5066557;28;20535;-84
2021/08/16 06:43:42;;;;;;;1999.90;999.90;;;18.20;99.90;;;;;;5068181;28;20484;-83
2021/08/16 06:46:09;;;;;;;1999.90;999.90;;;18.30;99.90;;;;;;5065456;28;20471;-83
2021/08/16 06:48:36;;;;;;;1999.90;999.90;;;18.30;99.90;;;;;;5066144;28;20670;-84
2021/08/16 06:51:03;;;;;;;1999.90;999.90;;;18.20;99.90;;;;;;5066415;28;20488;-86
2021/08/16 06:53:33;;;;;;;1999.90;999.90;;;18.10;99.90;;;;;;5061038;28;21218;-85
2021/08/16 06:56:00;;;;;;;1999.90;999.90;;;18.10;99.90;;;;;;5063073;28;20476;-85
2021/08/16 06:58:28;;;;;;;1999.90;999.90;;;18.20;99.90;;;;;;5065040;28;20514;-86
2021/08/16 07:00:55;;;;;;;1999.90;999.90;;;18.20;99.90;;;;;;5065481;28;20963;-85
2021/08/16 07:03:22;;;;;;;1999.90;999.90;;;18.20;99.90;;;;;;5065204;28;20465;-84
2021/08/16 07:05:49;;;;;;;1999.90;999.90;;;18.10;99.90;;;;;;5067299;28;20497;-86
2021/08/16 07:08:16;;;;;;;1999.90;999.90;;;18.10;99.90;;;;;;5066079;28;20551;-85
2021/08/16 07:10:45;;;;;;;1999.90;999.90;;;18.20;99.90;;;;;;5064723;28;20454;-85
2021/08/16 07:13:12;;;;;;;1999.90;999.90;;;18.40;99.90;;;;;;5067708;28;20438;-84
2021/08/16 07:15:39;;;;;;;1999.90;999.90;;;18.40;99.90;;;;;;5071238;28;20508;-85
2021/08/16 07:18:06;;;;;;;1999.90;999.90;;;18.50;99.90;;;;;;5064171;28;20533;-87
2021/08/16 07:20:34;;;;;;;1999.90;999.90;;;18.50;99.90;;;;;;5065481;28;20446;-84
2021/08/16 07:23:01;;;;;;;1999.90;999.90;;;18.60;99.90;;;;;;5066900;28;20475;-85
2021/08/16 07:25:28;;;;;;;1999.90;999.90;;;18.50;99.90;;;;;;5062279;28;20443;-85
2021/08/16 07:27:56;;;;;;;1999.90;999.90;;;18.50;99.90;;;;;;5054615;28;20451;-84
2021/08/16 07:30:23;;;;;;;1999.90;999.90;;;18.60;99.90;;;;;;5055764;28;20520;-84
2021/08/16 07:32:50;;;;;;;1999.90;999.90;;;18.60;99.90;;;;;;5055911;28;20607;-85
2021/08/16 07:35:17;;;;;;;1999.90;999.90;;;18.60;99.90;;;;;;5054557;28;20462;-85
2021/08/16 07:37:44;;;;;;;1999.90;999.90;;;18.80;99.90;;;;;;5051432;28;20489;-85
2021/08/16 07:40:12;;;;;;;1999.90;999.90;;;19.00;99.90;;;;;;5041401;28;20482;-87
2021/08/16 07:42:39;;;;;;;1999.90;999.90;;;19.00;99.90;;;;;;5054737;28;20444;-84
2021/08/16 07:45:08;;;;;;;1999.90;999.90;;;19.00;99.90;;;;;;5053913;28;20454;-84
2021/08/16 07:47:35;;;;;;;1999.90;999.90;;;19.00;99.90;;;;;;5053362;28;20446;-86
2021/08/16 07:50:02;;;;;;;1999.90;999.90;;;18.90;99.90;;;;;;5041846;28;20982;-86
2021/08/16 07:52:29;;;;;;;1999.90;999.90;;;18.80;99.90;;;;;;5053885;28;20501;-85
2021/08/16 07:54:56;;;;;;;1999.90;999.90;;;18.80;99.90;;;;;;5044979;28;20464;-85
2021/08/16 07:57:23;;;;;;;1999.90;999.90;;;19.00;99.90;;;;;;5063521;28;20464;-85
2021/08/16 07:59:50;;;;;;;1999.90;999.90;;;19.10;99.90;;;;;;5039145;28;20812;-86
2021/08/16 08:02:18;;;;;;;1999.90;999.90;;;19.20;99.90;;;;;;5059100;28;20446;-85
2021/08/16 08:04:45;;;;;;;1999.90;999.90;;;19.60;99.90;;;;;;5076603;28;20464;-84
2021/08/16 08:07:12;;;;;;;1999.90;999.90;;;19.70;99.90;;;;;;5065954;28;20541;-84
2021/08/16 08:09:39;;;;;;;1999.90;999.90;;;19.60;99.90;;;;;;5054321;28;20503;-85
2021/08/16 08:12:06;;;;;;;1999.90;999.90;;;19.50;99.90;;;;;;5053412;28;20505;-85
2021/08/16 08:14:33;;;;;;;1999.90;999.90;;;19.30;99.90;;;;;;5071538;28;20976;-85
2021/08/16 08:17:00;;;;;;;1999.90;999.90;;;19.20;99.90;;;;;;5073700;28;20459;-86
2021/08/16 08:19:30;;;;;;;1999.90;999.90;;;19.20;99.90;;;;;;5061783;28;20610;-84
2021/08/16 08:21:57;;;;;;;1999.90;999.90;;;19.10;99.90;;;;;;5055467;28;20975;-85
2021/08/16 08:24:24;;;;;;;1999.90;999.90;;;19.20;99.90;;;;;;5056785;28;20494;-85
2021/08/16 08:26:51;;;;;;;1999.90;999.90;;;19.30;99.90;;;;;;5054849;28;20461;-85
2021/08/16 08:29:18;;;;;;;1999.90;999.90;;;19.50;99.90;;;;;;5055501;28;20479;-85
2021/08/16 08:31:45;;;;;;;1999.90;999.90;;;19.60;99.90;;;;;;5053289;28;20488;-86
2021/08/16 08:34:12;;;;;;;1999.90;999.90;;;19.60;99.90;;;;;;5055931;28;20456;-85
2021/08/16 08:36:40;;;;;;;1999.90;999.90;;;19.50;99.90;;;;;;5053813;28;20458;-86
2021/08/16 08:39:07;;;;;;;1999.90;999.90;;;19.60;99.90;;;;;;5054701;28;20514;-85
2021/08/16 08:41:34;;;;;;;1999.90;999.90;;;19.80;99.90;;;;;;5033650;28;20441;-85
2021/08/16 08:44:04;;;;;;;1999.90;999.90;;;19.80;99.90;;;;;;5049456;28;20451;-85
2021/08/16 08:46:34;;;;;;;1999.90;999.90;;;19.80;99.90;;;;;;5057010;28;20538;-85
2021/08/16 08:49:02;;;;;;;1999.90;999.90;;;19.80;99.90;;;;;;5053103;28;20471;-87
2021/08/16 08:51:29;;;;;;;1999.90;999.90;;;19.80;99.90;;;;;;5052933;28;20443;-86
2021/08/16 08:53:57;;;;;;;1999.90;999.90;;;19.60;99.90;;;;;;5068868;28;20450;-84
2021/08/16 08:56:24;;;;;;;1999.90;999.90;;;19.40;99.90;;;;;;5076147;28;20461;-84
2021/08/16 08:58:51;;;;;;;1999.90;999.90;;;19.40;99.90;;;;;;5056641;28;20471;-83
2021/08/16 09:01:18;;;;;;;1999.90;999.90;;;19.30;99.90;;;;;;5053598;28;20478;-85
2021/08/16 09:03:49;;;;;;;1999.90;999.90;;;19.20;99.90;;;;;;5048369;28;20440;-86
2021/08/16 09:06:27;;;;;;;1999.90;999.90;;;19.20;99.90;;;;;;5054985;28;20461;-85
2021/08/16 09:08:54;;;;;;;1999.90;999.90;;;19.20;99.90;;;;;;5053359;28;20987;-84
2021/08/16 09:11:24;;;;;;;1999.90;999.90;;;19.20;99.90;;;;;;5052415;28;22342;-84
2021/08/16 09:13:54;;;;;;;1999.90;999.90;;;19.10;99.90;;;;;;5052981;28;20455;-85
2021/08/16 09:16:22;;;;;;;1999.90;999.90;;;19.10;99.90;;;;;;5053859;28;20554;-84
2021/08/16 09:18:49;;;;;;;1999.90;999.90;;;19.00;99.90;;;;;;5042333;28;21286;-83
2021/08/16 09:21:25;;;;;;;1999.90;999.90;;;19.10;99.90;;;;;;5034783;28;20437;-87
2021/08/16 09:23:56;;;;;;;1999.90;999.90;;;19.10;99.90;;;;;;5047706;28;20454;-86
2021/08/16 09:26:28;;;;;;;1999.90;999.90;;;19.10;99.90;;;;;;5055572;28;20449;-86
2021/08/16 09:28:55;;;;;;;1999.90;999.90;;;19.20;99.90;;;;;;5074426;28;20477;-84
2021/08/16 09:31:24;;;;;;;1999.90;999.90;;;19.20;99.90;;;;;;5063390;28;20458;-85
2021/08/16 09:33:56;;;;;;;1999.90;999.90;;;19.10;99.90;;;;;;5055006;28;20449;-84
2021/08/16 09:36:34;;;;;;;1999.90;999.90;;;19.10;99.90;;;;;;5052785;28;20535;-84
2021/08/16 09:39:00;;;;;;;1999.90;999.90;;;19.10;99.90;;;;;;5066078;28;20540;-84
2021/08/16 09:41:29;;;;;;;1999.90;999.90;;;19.00;99.90;;;;;;5069882;28;20450;-85
2021/08/16 09:44:07;;;;;;;1999.90;999.90;;;19.00;99.90;;;;;;5057559;28;20471;-85
2021/08/16 09:46:35;;;;;;;1999.90;999.90;;;18.90;99.90;;;;;;5048888;28;20464;-84
2021/08/16 09:49:04;;;;;;;1999.90;999.90;;;18.90;99.90;;;;;;5051756;28;20482;-84
2021/08/16 09:51:32;;;;;;;1999.90;999.90;;;19.00;99.90;;;;;;5045816;28;20452;-84
2021/08/16 09:54:01;;;;;;;1999.90;999.90;;;19.00;99.90;;;;;;5049885;28;20507;-84
2021/08/16 09:56:30;;;;;;;1999.90;999.90;;;19.00;99.90;;;;;;5047968;28;20448;-85
2021/08/16 09:58:57;;;;;;;1999.90;999.90;;;19.00;99.90;;;;;;5036166;28;20843;-84
2021/08/16 10:01:24;;;;;;;1999.90;999.90;;;18.90;99.90;;;;;;5054646;28;20522;-84
2021/08/16 10:03:51;;;;;;;1999.90;999.90;;;18.90;99.90;;;;;;5052219;28;20485;-85
2021/08/16 10:06:19;;;;;;;1999.90;999.90;;;19.00;99.90;;;;;;5054926;28;20545;-86
2021/08/16 10:08:50;;;;;;;1999.90;999.90;;;19.00;99.90;;;;;;5058739;28;20478;-85
2021/08/16 10:11:19;;;;;;;1999.90;999.90;;;18.80;99.90;;;;;;5054950;28;20935;-84
2021/08/16 10:13:50;;;;;;;1999.90;999.90;;;18.80;99.90;;;;;;5056085;28;20493;-84
2021/08/16 10:16:21;;;;;;;1999.90;999.90;;;18.70;99.90;;;;;;5055736;28;20453;-83
2021/08/16 10:18:52;;;;;;;1999.90;999.90;;;18.40;99.90;;;;;;5058935;28;20491;-83
2021/08/16 10:21:22;;;;;;;1999.90;999.90;;;18.30;99.90;;;;;;5058246;28;20481;-83
2021/08/16 10:23:50;;;;;;;1999.90;999.90;;;18.20;99.90;;;;;;5057320;28;20447;-84
2021/08/16 10:26:28;;;;;;;1999.90;999.90;;;18.20;99.90;;;;;;5057924;28;20481;-82
2021/08/16 10:28:58;;;;;;;1999.90;999.90;;;18.20;99.90;;;;;;5047012;28;20828;-83
2021/08/16 10:31:27;;;;;;;1999.90;999.90;;;18.00;99.90;;;;;;5057973;28;20446;-82
2021/08/16 10:33:54;;;;;;;1999.90;999.90;;;17.90;99.90;;;;;;5060471;28;20851;-83
2021/08/16 10:36:25;;;;;;;1999.90;999.90;;;17.70;99.90;;;;;;5060336;28;20459;-82
2021/08/16 10:38:57;;;;;;;1999.90;999.90;;;17.60;99.90;;;;;;5065808;28;20484;-85
2021/08/16 10:41:28;;;;;;;1999.90;999.90;;;17.50;99.90;;;;;;5059621;28;20504;-85
2021/08/16 10:43:57;;;;;;;1999.90;999.90;;;17.40;99.90;;;;;;5060214;28;20475;-86
2021/08/16 10:46:26;;;;;;;1999.90;999.90;;;17.30;99.90;;;;;;5060251;28;20601;-85
2021/08/16 10:49:03;;;;;;;1999.90;999.90;;;17.40;99.90;;;;;;5060807;28;20511;-84
2021/08/16 10:51:44;;;;;;;1999.90;999.90;;;17.30;99.90;;;;;;5060277;28;20463;-83
2021/08/16 10:54:23;;;;;;;1999.90;999.90;;;17.30;99.90;;;;;;5060625;28;20538;-83
2021/08/16 10:56:52;;;;;;;1999.90;999.90;;;17.40;99.90;;;;;;5060144;28;20492;-83
2021/08/16 10:59:21;;;;;;;1999.90;999.90;;;17.40;99.90;;;;;;5053056;28;20457;-84
2021/08/16 11:01:48;;;;;;;1999.90;999.90;;;17.20;99.90;;;;;;5049928;28;20440;-82
2021/08/16 11:04:16;;;;;;;1999.90;999.90;;;17.20;99.90;;;;;;5058119;28;20455;-82
2021/08/16 11:06:53;;;;;;;1999.90;999.90;;;17.10;99.90;;;;;;5057427;28;20444;-84
2021/08/16 11:09:25;;;;;;;1999.90;999.90;;;17.00;99.90;;;;;;5059248;28;20477;-82
2021/08/16 11:11:54;;;;;;;1999.90;999.90;;;16.80;99.90;;;;;;5060009;28;20570;-84
2021/08/16 11:14:25;;;;;;;1999.90;999.90;;;16.80;99.90;;;;;;5059651;28;20542;-83
2021/08/16 11:16:54;;;;;;;1999.90;999.90;;;16.90;99.90;;;;;;5075220;28;20440;-83
2021/08/16 11:19:22;;;;;;;1999.90;999.90;;;17.00;99.90;;;;;;5079229;28;20522;-83
2021/08/16 11:21:57;;;;;;;1999.90;999.90;;;16.90;99.90;;;;;;5079696;28;20445;-88
2021/08/16 11:24:29;;;;;;;1999.90;999.90;;;16.80;99.90;;;;;;5076117;28;20442;-86
2021/08/16 11:26:57;;;;;;;1999.90;999.90;;;16.80;99.90;;;;;;5075526;28;20447;-85
2021/08/16 11:29:27;;;;;;;1999.90;999.90;;;16.80;99.90;;;;;;5074738;28;20475;-83
2021/08/16 11:31:58;;;;;;;1999.90;999.90;;;16.80;99.90;;;;;;5064660;28;20445;-84
2021/08/16 11:34:26;;;;;;;1999.90;999.90;;;16.90;99.90;;;;;;5060980;28;20466;-81
2021/08/16 11:36:54;;;;;;;1999.90;999.90;;;17.00;99.90;;;;;;5058539;28;20484;-86
2021/08/16 11:39:29;;;;;;;1999.90;999.90;;;17.10;99.90;;;;;;5057028;28;20518;-83
2021/08/16 11:41:59;;;;;;;1999.90;999.90;;;17.20;99.90;;;;;;5068732;28;20812;-83
2021/08/16 11:44:29;;;;;;;1999.90;999.90;;;17.20;99.90;;;;;;5066938;28;20459;-84
2021/08/16 11:46:59;;;;;;;1999.90;999.90;;;17.30;99.90;;;;;;5057793;28;20515;-85
2021/08/16 11:49:27;;;;;;;1999.90;999.90;;;17.30;99.90;;;;;;5059656;28;20495;-84
2021/08/16 11:51:55;;;;;;;1999.90;999.90;;;17.30;99.90;;;;;;5056143;28;20466;-82
2021/08/16 11:54:27;;;;;;;1999.90;999.90;;;17.30;99.90;;;;;;5040509;28;20490;-83
2021/08/16 11:56:55;;;;;;;1999.90;999.90;;;17.40;99.90;;;;;;5057970;28;20454;-84
2021/08/16 11:59:23;;;;;;;1999.90;999.90;;;17.30;99.90;;;;;;5061969;28;20479;-86
2021/08/16 12:01:52;;;;;;;1999.90;999.90;;;17.30;99.90;;;;;;5058222;28;20462;-86